Cold Springs, Nevada
Current Conditions -  °F | °C
As of 10:55 PM on Wednesday 26 Nov 2014 (Local Time) from KRTS Reporting Station
Clear Clear  
Wind Chill: 54°   Ceiling: Unl
Heat Index: 54°   Visibility: 10mi
Dew Point: 18°   Wind: 3mph
Humidity: 24%   Direction: 30°NNE
Pressure: 30.32"   Gusts: NA
Location:  39.7378°N, 119.889°W
Report Text: KRTS 270655Z AUTO 03003KT 10SM CLR 12/M08 A3032 RMK AO2
Loading
Personal Weather Stations






























Interactive Weather Map New forecast layout! Learn more

10-Day Weather Forecast

Advertisements
Track Severe Weather on mobile